Simferopol, Ukraine
Current Conditions -  °F | °C
As of 3:30 AM on Wednesday 22 Oct 2014 (Local Time) from URFF Reporting Station
Haze Haze  
Wind Chill: 57°   Ceiling: 600
Heat Index: 57°   Visibility: 2.1mi
Dew Point: 55°   Wind: 0mph
Humidity: 94%   Direction: NA
Pressure: 29.8"   Gusts: NA
Location:  44.95°N, 34.1°E
Report Text: URFF 220030Z 00000MPS 3500 BR OVC006 14/13 Q1009 19010065 TEMPO0500 FG OVC002 BKN020CB
Loading
Personal Weather Stations






























Interactive Weather Map
Tropical Storm Tracking
New forecast layout! Learn more

10-Day Weather Forecast

Advertisements
Track Severe Weather on mobile